METAR Data
IDs: Format: Raw Decoded Include TAF

Data at: 1108 UTC 26 Sep 2018

KRPJ 261055Z AUTO 27005KT 10SM CLR 07/07 A3010 RMK AO2 T00740072
KRPJ 261035Z AUTO 27005KT 10SM CLR 08/07 A3009 RMK AO2 T00750072
KRPJ 261015Z AUTO 27005KT 10SM CLR 08/08 A3008 RMK AO2 T00780075
KRPJ 260955Z AUTO 27005KT 10SM CLR 08/07 A3007 RMK AO2 T00760072
KRPJ 260935Z AUTO 26003KT 10SM CLR 08/07 A3007 RMK AO2 T00820074
KRPJ 260915Z AUTO 28004KT 10SM CLR 09/08 A3006 RMK AO2 T00890075
KRPJ 260855Z AUTO 31006KT 10SM CLR 09/08 A3006 RMK AO2 T00920075
KRPJ 260835Z AUTO 31005KT 10SM CLR 09/07 A3005 RMK AO2 T00930073
KRPJ 260815Z AUTO 32008KT 10SM CLR 10/07 A3004 RMK AO2 T00990072
KRPJ 260755Z AUTO 32010G14KT 10SM CLR 10/07 A3004 RMK AO2 T01020072
KRPJ 260735Z AUTO 32010KT 10SM SCT028 11/07 A3004 RMK AO2 T01100073
KRPJ 260715Z AUTO 33014KT 10SM BKN023 12/09 A3003 RMK AO2 T01180094
KRPJ 260655Z AUTO 31012G16KT 10SM OVC025 12/10 A3002 RMK AO2 T01230098
KRPJ 260635Z AUTO 30012G16KT 10SM BKN020 OVC026 13/10 A3001 RMK AO2 T01270102
KRPJ 260615Z AUTO 31009KT 10SM OVC022 13/11 A3001 RMK AO2 T01300106
KRPJ 260555Z AUTO 31010KT 10SM OVC020 13/11 A3001 RMK AO2 T01310110 10185 20131 402820131
KRPJ 260535Z AUTO 31012G17KT 10SM OVC016 14/11 A3000 RMK AO2 T01350112
KRPJ 260515Z AUTO 32014G19KT 10SM BKN016 OVC021 14/12 A2999 RMK AO2 T01390119
KRPJ 260455Z AUTO 30014G19KT 10SM OVC016 14/13 A2999 RMK AO2 T01410125
KRPJ 260435Z AUTO 30011G17KT 10SM OVC015 15/13 A2999 RMK AO2 T01450128
KRPJ 260415Z AUTO 30010G18KT 10SM OVC012 15/13 A2998 RMK AO2 T01470133
KRPJ 260355Z AUTO 31008G14KT 10SM BKN014 OVC020 15/14 A2997 RMK AO2 T01520138
KRPJ 260335Z AUTO 31012G18KT 10SM OVC016 16/14 A2995 RMK AO2 T01550139
KRPJ 260315Z AUTO 30013G19KT 10SM SCT012 OVC018 16/15 A2994 RMK AO2 T01570146
KRPJ 260255Z AUTO 31012G18KT 10SM SCT012 BKN018 OVC026 16/15 A2992 RMK AO2 T01600150
KRPJ 260235Z AUTO 30011G18KT 10SM SCT012 OVC022 17/16 A2991 RMK AO2 T01660155
KRPJ 260215Z AUTO 30013G18KT 10SM BKN010 BKN025 OVC037 17/16 A2990 RMK AO2 T01700161
KRPJ 260155Z AUTO 30012G17KT 10SM SCT010 SCT021 BKN035 17/17 A2989 RMK AO2 T01700165
KRPJ 260135Z AUTO 31011G16KT 10SM -RA SCT010 BKN017 BKN033 17/17 A2988 RMK AO2 T01720167
KRPJ 260115Z AUTO 31010G16KT 10SM BKN012 OVC017 18/17 A2988 RMK AO2 T01760168
KRPJ 260055Z AUTO 30010KT 7SM SCT004 BKN008 OVC019 18/18 A2987 RMK AO2 T01810180
KRPJ 260035Z AUTO 29009G14KT 10SM OVC006 18/18 A2986 RMK AO2 T01830182
KRPJ 260015Z AUTO 26008KT 10SM OVC008 19/18 A2986 RMK AO2 LTG DSNT E T01850181
KRPJ 252355Z AUTO 27011KT 10SM OVC010 19/18 A2985 RMK AO2 60023 T01850182 10282 20178
KRPJ 252335Z AUTO 26009KT 10SM SCT008 BKN014 BKN023 19/19 A2983 RMK AO2 T01870185
KRPJ 252315Z AUTO 24008KT 10SM SCT014 BKN019 BKN050 19/18 A2983 RMK AO2 T01860184
KRPJ 252255Z AUTO 25005KT 10SM -RA SCT048 SCT060 BKN110 19/18 A2981 RMK AO2 P0001 T01850184
KRPJ 252235Z AUTO 20005KT 10SM -RA SCT047 SCT070 BKN100 18/18 A2980 RMK AO2 LTG DSNT E T01840181
KRPJ 252215Z AUTO 26003KT 10SM -RA SCT070 BKN090 OVC120 18/18 A2980 RMK AO2 T01820178
KRPJ 252155Z AUTO 24006KT 10SM -RA SCT035 SCT070 OVC120 18/18 A2982 RMK AO2 LTG DSNT E THRU S P0021 T01800175
KRPJ 252135Z AUTO 30015KT 4SM +TSRA SCT029 BKN036 OVC075 18/18 A2982 RMK AO2 LTG DSNT ALQS P0020 T01790175
KRPJ 252115Z AUTO 27022G35KT 5SM +RA SCT035 SCT050 BKN065 22/17 A2984 RMK AO2 LTG DSNT ALQS P0003 T02210165
KRPJ 252055Z AUTO 22015G19KT 10SM SCT050 SCT100 27/16 A2978 RMK AO2 LTG DSNT NW T02650160
KRPJ 252035Z AUTO 23014G20KT 10SM SCT100 27/16 A2977 RMK AO2 T02720157
KRPJ 252015Z AUTO 23012G23KT 10SM SCT055 SCT090 28/16 A2979 RMK AO2 T02760158
KRPJ 251955Z AUTO 24012G20KT 10SM SCT055 27/16 A2980 RMK AO2 LTG DSNT W T02730157
KRPJ 251935Z AUTO 23014KT 10SM SCT090 28/16 A2979 RMK AO2 LTG DSNT W T02770158
KRPJ 251915Z AUTO 23015G20KT 10SM SCT044 BKN080 27/16 A2981 RMK AO2 LTG DSNT W T02690158
KRPJ 251855Z AUTO 21011G20KT 10SM SCT044 OVC080 27/17 A2983 RMK AO2 LTG DSNT SE T02710165
KRPJ 251835Z AUTO 22014G20KT 10SM SCT040 SCT045 OVC080 27/16 A2985 RMK AO2 LTG DSNT NW T02680163
KRPJ 251815Z AUTO 21014G17KT 10SM SCT040 OVC050 26/17 A2986 RMK AO2 T02610170
KRPJ 251755Z AUTO 23015G18KT 10SM BKN040 BKN050 OVC085 26/17 A2986 RMK AO2 T02610172 10268 20161
KRPJ 251735Z AUTO 22012G18KT 10SM BKN040 BKN050 26/17 A2986 RMK AO2 T02620168
KRPJ 251715Z AUTO 20009G14KT 10SM BKN038 OVC046 26/17 A2986 RMK AO2 LTG DSNT E T02610168
KRPJ 251655Z AUTO 22012KT 10SM SCT034 BKN046 25/17 A2986 RMK AO2 T02520167
KRPJ 251635Z AUTO 19011G15KT 10SM SCT032 SCT048 25/17 A2988 RMK AO2 T02510167
KRPJ 251615Z AUTO 21012G16KT 10SM SCT020 SCT025 25/17 A2988 RMK AO2 T02480169
KRPJ 251555Z AUTO 19009G14KT 10SM SCT018 SCT025 24/19 A2989 RMK AO2 LTG DSNT SE T02440190
KRPJ 251535Z AUTO 20009KT 10SM SCT017 24/19 A2989 RMK AO2 T02350188
KRPJ 251515Z AUTO 19008KT 10SM SCT013 23/19 A2989 RMK AO2 LTG DSNT SE T02280191
KRPJ 251455Z AUTO 21006KT 10SM BKN011 23/19 A2990 RMK AO2 T02260193
KRPJ 251435Z AUTO 21005KT 10SM OVC009 22/19 A2991 RMK AO2 T02180194
KRPJ 251415Z AUTO 21005KT 10SM OVC007 21/19 A2991 RMK AO2 LTG DSNT S T02050191
KRPJ 251355Z AUTO 21006KT 7SM OVC005 20/19 A2991 RMK AO2 T02000191
KRPJ 251335Z AUTO 22005KT 7SM SCT005 20/19 A2991 RMK AO2 LTG DSNT E T01950190
KRPJ 251315Z AUTO 23004KT 5SM BR CLR 19/19 A2991 RMK AO2 T01860186
KRPJ 251255Z AUTO 20003KT 3SM BR SCT005 SCT039 SCT055 18/18 A2991 RMK AO2 T01780178
KRPJ 251235Z AUTO 00000KT 1 3/4SM BR SCT007 SCT039 BKN060 17/17 A2991 RMK AO2 T01700170
KRPJ 251215Z AUTO 17003KT 1 1/2SM BR SCT005 SCT009 OVC060 16/16 A2991 RMK AO2 T01640164
KRPJ 251155Z AUTO 18005KT 1SM BR BKN007 BKN046 OVC060 16/16 A2991 RMK AO2 T01610161 10197 20160
KRPJ 251135Z AUTO 17004KT 1/2SM FG SCT007 BKN044 16/16 A2991 RMK AO2 T01600160
KRPJ 251115Z AUTO 00000KT 1/4SM FG BKN018 BKN065 17/17 A2991 RMK AO2 T01700170
KRPJ 251055Z AUTO 00000KT 5SM BR SCT050 BKN065 17/17 A2990 RMK AO2 LTG DSNT SE T01740174
KRPJ 251035Z AUTO 19004KT 7SM SCT009 BKN050 OVC065 18/18 A2990 RMK AO2 LTG DSNT SE T01800179
KRPJ 251015Z AUTO 18003KT 7SM SCT011 BKN041 OVC075 18/18 A2990 RMK AO2 LTG DSNT E T01810181
KRPJ 250955Z AUTO 17004KT 7SM SCT023 BKN039 OVC075 17/17 A2990 RMK AO2 LTG DSNT E THRU S T01740174
KRPJ 250935Z AUTO 18004KT 5SM BR BKN025 BKN039 OVC070 17/17 A2989 RMK AO2 LTG DSNT SE AND S T01700170
KRPJ 250915Z AUTO 00000KT 7SM SCT030 BKN050 OVC070 17/17 A2989 RMK AO2 LTG DSNT SE T01730173
KRPJ 250855Z AUTO 00000KT 7SM BKN030 OVC050 18/18 A2989 RMK AO2 T01770177
KRPJ 250835Z AUTO 00000KT 7SM VCTS SCT017 SCT032 BKN048 18/18 A2989 RMK AO2 LTG DSNT SE T01800180
KRPJ 250815Z AUTO 00000KT 10SM SCT019 BKN038 BKN050 18/18 A2989 RMK AO2 LTG DSNT SE T01820181
KRPJ 250755Z AUTO 00000KT 10SM OVC019 19/19 A2990 RMK AO2 LTG DSNT SE T01870185
KRPJ 250735Z AUTO 00000KT 10SM OVC021 19/18 A2991 RMK AO2 LTG DSNT SE T01850180
KRPJ 250715Z AUTO 00000KT 10SM BKN021 BKN045 OVC070 18/18 A2991 RMK AO2 LTG DSNT SE T01810178
KRPJ 250655Z AUTO 00000KT 10SM SCT021 SCT049 BKN065 19/18 A2990 RMK AO2 LTG DSNT SE T01870181
KRPJ 250635Z AUTO 16004KT 10SM SCT049 OVC065 20/19 A2990 RMK AO2 LTG DSNT SE T01950186
KRPJ 250615Z AUTO 18004KT 10SM SCT042 BKN049 OVC055 20/19 A2990 RMK AO2 T01950186
KRPJ 250555Z AUTO 17003KT 10SM BKN040 BKN047 OVC055 20/19 A2990 RMK AO2 LTG DSNT SE T01970186 10203 20182 402480115
KRPJ 250535Z AUTO 17005KT 10SM BKN038 BKN047 OVC055 20/19 A2991 RMK AO2 T01950186
KRPJ 250515Z AUTO 16004KT 10SM BKN038 OVC060 19/18 A2991 RMK AO2 T01860178
KRPJ 250455Z AUTO 00000KT 10SM OVC060 18/18 A2991 RMK AO2 T01830177
KRPJ 250435Z AUTO 00000KT 10SM BKN060 19/18 A2992 RMK AO2 T01890178
KRPJ 250415Z AUTO 00000KT 10SM SCT043 OVC060 19/18 A2992 RMK AO2 T01910180
KRPJ 250355Z AUTO 00000KT 10SM SCT041 SCT047 OVC050 19/18 A2992 RMK AO2 T01910179
KRPJ 250335Z AUTO 00000KT 10SM BKN041 OVC047 19/18 A2993 RMK AO2 T01930180
KRPJ 250315Z AUTO 00000KT 10SM SCT038 OVC050 19/18 A2992 RMK AO2 T01920179
KRPJ 250255Z AUTO 13003KT 10SM SCT041 OVC050 19/18 A2992 RMK AO2 T01930178
KRPJ 250235Z AUTO 13004KT 10SM BKN039 OVC045 19/18 A2992 RMK AO2 T01930178
KRPJ 250215Z AUTO 13004KT 10SM OVC037 19/18 A2992 RMK AO2 T01920177
KRPJ 250155Z AUTO 12004KT 10SM OVC033 19/18 A2993 RMK AO2 T01940176
KRPJ 250135Z AUTO 13004KT 10SM OVC033 19/18 A2993 RMK AO2 T01940175
KRPJ 250115Z AUTO 14005KT 10SM OVC031 20/17 A2993 RMK AO2 T01950174
KRPJ 250055Z AUTO 13004KT 10SM OVC031 20/17 A2992 RMK AO2 T01980173
KRPJ 250035Z AUTO 14004KT 10SM OVC029 20/17 A2992 RMK AO2 T02000172
KRPJ 250015Z AUTO 14004KT 10SM OVC029 20/17 A2992 RMK AO2 T02010172
KRPJ 242355Z AUTO 15004KT 10SM OVC031 20/17 A2992 RMK AO2 T02030172 10240 20202
KRPJ 242335Z AUTO 15005KT 10SM SCT020 OVC031 21/17 A2992 RMK AO2 T02050172
KRPJ 242315Z AUTO 16006KT 10SM BKN018 OVC026 21/17 A2992 RMK AO2 T02050171